sensor_id;sensor_type;location;lat;lon;timestamp;pressure;altitude;pressure_sealevel;temperature;humidity
60489;BME280;46331;49.252;8.904;2024-03-02T00:00:26;98577.31;;;5.68;nan
60489;BME280;46331;49.252;8.904;2024-03-02T00:01:10;98585.75;;;5.70;nan
60489;BME280;46331;49.252;8.904;2024-03-02T00:01:50;98588.53;;;5.64;nan
60489;BME280;46331;49.252;8.904;2024-03-02T00:02:31;98588.78;;;5.62;nan
60489;BME280;46331;49.252;8.904;2024-03-02T00:03:11;98583.75;;;5.61;nan
60489;BME280;46331;49.252;8.904;2024-03-02T00:04:18;98582.13;;;5.71;nan
60489;BME280;46331;49.252;8.904;2024-03-02T00:04:59;98578.25;;;5.62;nan
60489;BME280;46331;49.252;8.904;2024-03-02T00:05:40;98577.91;;;5.59;nan
60489;BME280;46331;49.252;8.904;2024-03-02T00:06:21;98589.22;;;5.59;nan
60489;BME280;46331;49.252;8.904;2024-03-02T00:07:05;98585.00;;;5.58;nan
60489;BME280;46331;49.252;8.904;2024-03-02T00:07:57;98573.78;;;5.63;nan
60489;BME280;46331;49.252;8.904;2024-03-02T00:08:37;98575.97;;;5.54;nan
60489;BME280;46331;49.252;8.904;2024-03-02T00:09:18;98585.94;;;5.52;nan
60489;BME280;46331;49.252;8.904;2024-03-02T00:10:00;98577.81;;;5.53;nan
60489;BME280;46331;49.252;8.904;2024-03-02T00:10:41;98574.84;;;5.50;nan
60489;BME280;46331;49.252;8.904;2024-03-02T00:11:21;98577.47;;;5.50;nan
60489;BME280;46331;49.252;8.904;2024-03-02T00:12:02;98580.91;;;5.50;nan
60489;BME280;46331;49.252;8.904;2024-03-02T00:12:43;98571.41;;;5.49;nan
60489;BME280;46331;49.252;8.904;2024-03-02T00:13:29;98580.66;;;5.52;nan
60489;BME280;46331;49.252;8.904;2024-03-02T00:14:10;98587.19;;;5.49;nan
60489;BME280;46331;49.252;8.904;2024-03-02T00:14:51;98585.00;;;5.46;nan
60489;BME280;46331;49.252;8.904;2024-03-02T00:15:41;98584.00;;;5.47;nan
60489;BME280;46331;49.252;8.904;2024-03-02T00:16:30;98578.81;;;5.52;nan
60489;BME280;46331;49.252;8.904;2024-03-02T00:17:25;98578.81;;;5.52;nan
60489;BME280;46331;49.252;8.904;2024-03-02T00:18:10;98572.44;;;5.48;nan
60489;BME280;46331;49.252;8.904;2024-03-02T00:18:52;98574.41;;;5.41;nan
60489;BME280;46331;49.252;8.904;2024-03-02T00:19:32;98570.97;;;5.41;nan
60489;BME280;46331;49.252;8.904;2024-03-02T00:20:18;98579.97;;;5.45;nan
60489;BME280;46331;49.252;8.904;2024-03-02T00:21:01;98579.34;;;5.37;nan
60489;BME280;46331;49.252;8.904;2024-03-02T00:21:42;98574.31;;;5.36;nan
60489;BME280;46331;49.252;8.904;2024-03-02T00:22:23;98576.81;;;5.31;nan
60489;BME280;46331;49.252;8.904;2024-03-02T00:23:06;98575.56;;;5.33;nan
60489;BME280;46331;49.252;8.904;2024-03-02T00:23:48;98578.75;;;5.35;nan
60489;BME280;46331;49.252;8.904;2024-03-02T00:24:34;98580.59;;;5.35;nan
60489;BME280;46331;49.252;8.904;2024-03-02T00:25:15;98573.84;;;5.27;nan
60489;BME280;46331;49.252;8.904;2024-03-02T00:25:56;98581.72;;;5.27;nan
60489;BME280;46331;49.252;8.904;2024-03-02T00:26:37;98574.53;;;5.23;nan
60489;BME280;46331;49.252;8.904;2024-03-02T00:27:19;98580.13;;;5.26;nan
60489;BME280;46331;49.252;8.904;2024-03-02T00:28:00;98576.94;;;5.24;nan
60489;BME280;46331;49.252;8.904;2024-03-02T00:28:41;98576.13;;;5.24;nan
60489;BME280;46331;49.252;8.904;2024-03-02T00:29:24;98584.00;;;5.24;nan
60489;BME280;46331;49.252;8.904;2024-03-02T00:30:47;98581.28;;;5.30;nan
60489;BME280;46331;49.252;8.904;2024-03-02T00:31:31;98579.56;;;5.24;nan
60489;BME280;46331;49.252;8.904;2024-03-02T00:32:13;98575.09;;;5.25;nan
60489;BME280;46331;49.252;8.904;2024-03-02T00:32:55;98575.78;;;5.20;nan
60489;BME280;46331;49.252;8.904;2024-03-02T00:33:39;98569.50;;;5.21;nan
60489;BME280;46331;49.252;8.904;2024-03-02T00:34:21;98571.56;;;5.19;nan
60489;BME280;46331;49.252;8.904;2024-03-02T00:35:04;98565.28;;;5.20;nan
60489;BME280;46331;49.252;8.904;2024-03-02T00:35:45;98565.19;;;5.15;nan
60489;BME280;46331;49.252;8.904;2024-03-02T00:36:26;98569.06;;;5.12;nan
60489;BME280;46331;49.252;8.904;2024-03-02T00:37:07;98563.00;;;5.12;nan
60489;BME280;46331;49.252;8.904;2024-03-02T00:37:48;98566.66;;;5.11;nan
60489;BME280;46331;49.252;8.904;2024-03-02T00:38:30;98556.69;;;5.13;nan
60489;BME280;46331;49.252;8.904;2024-03-02T00:39:12;98565.63;;;5.12;nan
60489;BME280;46331;49.252;8.904;2024-03-02T00:39:53;98558.78;;;5.11;nan
60489;BME280;46331;49.252;8.904;2024-03-02T00:40:34;98565.03;;;5.10;nan
60489;BME280;46331;49.252;8.904;2024-03-02T00:42:05;98558.22;;;5.09;nan
60489;BME280;46331;49.252;8.904;2024-03-02T00:42:45;98560.03;;;5.08;nan
60489;BME280;46331;49.252;8.904;2024-03-02T00:43:49;98567.56;;;5.16;nan
60489;BME280;46331;49.252;8.904;2024-03-02T00:44:33;98566.66;;;5.11;nan
60489;BME280;46331;49.252;8.904;2024-03-02T00:45:16;98563.94;;;5.06;nan
60489;BME280;46331;49.252;8.904;2024-03-02T00:45:56;98570.19;;;5.05;nan
60489;BME280;46331;49.252;8.904;2024-03-02T00:46:41;98577.63;;;5.08;nan
60489;BME280;46331;49.252;8.904;2024-03-02T00:47:22;98566.78;;;5.04;nan
60489;BME280;46331;49.252;8.904;2024-03-02T00:48:03;98567.81;;;5.03;nan
60489;BME280;46331;49.252;8.904;2024-03-02T00:48:51;98577.63;;;5.08;nan
60489;BME280;46331;49.252;8.904;2024-03-02T00:49:33;98579.34;;;5.02;nan
60489;BME280;46331;49.252;8.904;2024-03-02T00:50:14;98580.16;;;5.03;nan
60489;BME280;46331;49.252;8.904;2024-03-02T00:50:54;98578.53;;;5.01;nan
60489;BME280;46331;49.252;8.904;2024-03-02T00:51:35;98574.91;;;5.03;nan
60489;BME280;46331;49.252;8.904;2024-03-02T00:52:16;98566.41;;;5.00;nan
60489;BME280;46331;49.252;8.904;2024-03-02T00:52:57;98568.50;;;4.98;nan
60489;BME280;46331;49.252;8.904;2024-03-02T00:53:37;98572.72;;;4.99;nan
60489;BME280;46331;49.252;8.904;2024-03-02T00:54:22;98571.59;;;5.07;nan
60489;BME280;46331;49.252;8.904;2024-03-02T00:55:04;98574.06;;;5.02;nan
60489;BME280;46331;49.252;8.904;2024-03-02T00:55:46;98569.06;;;5.00;nan
60489;BME280;46331;49.252;8.904;2024-03-02T00:56:28;98574.31;;;5.00;nan
60489;BME280;46331;49.252;8.904;2024-03-02T00:57:10;98567.34;;;5.06;nan
60489;BME280;46331;49.252;8.904;2024-03-02T00:57:52;98567.25;;;5.01;nan
60489;BME280;46331;49.252;8.904;2024-03-02T00:58:33;98568.81;;;5.02;nan
60489;BME280;46331;49.252;8.904;2024-03-02T00:59:13;98567.00;;;5.03;nan
60489;BME280;46331;49.252;8.904;2024-03-02T00:59:54;98565.97;;;5.04;nan
60489;BME280;46331;49.252;8.904;2024-03-02T01:00:35;98571.22;;;5.04;nan
60489;BME280;46331;49.252;8.904;2024-03-02T01:01:15;98579.09;;;5.04;nan
60489;BME280;46331;49.252;8.904;2024-03-02T01:01:56;98574.91;;;5.03;nan
60489;BME280;46331;49.252;8.904;2024-03-02T01:02:37;98573.06;;;5.03;nan
60489;BME280;46331;49.252;8.904;2024-03-02T01:03:18;98573.28;;;5.01;nan
60489;BME280;46331;49.252;8.904;2024-03-02T01:03:59;98579.00;;;4.98;nan
60489;BME280;46331;49.252;8.904;2024-03-02T01:04:40;98582.19;;;5.00;nan
60489;BME280;46331;49.252;8.904;2024-03-02T01:05:20;98579.00;;;4.98;nan
60489;BME280;46331;49.252;8.904;2024-03-02T01:06:01;98581.06;;;4.96;nan
60489;BME280;46331;49.252;8.904;2024-03-02T01:06:42;98587.34;;;4.95;nan
60489;BME280;46331;49.252;8.904;2024-03-02T01:07:23;98585.72;;;4.94;nan
60489;BME280;46331;49.252;8.904;2024-03-02T01:08:04;98587.78;;;4.92;nan
60489;BME280;46331;49.252;8.904;2024-03-02T01:08:45;98574.56;;;4.87;nan
60489;BME280;46331;49.252;8.904;2024-03-02T01:09:27;98578.44;;;4.84;nan
60489;BME280;46331;49.252;8.904;2024-03-02T01:10:08;98576.81;;;4.83;nan
60489;BME280;46331;49.252;8.904;2024-03-02T01:10:51;98578.09;;;4.81;nan
60489;BME280;46331;49.252;8.904;2024-03-02T01:11:31;98587.22;;;4.78;nan
60489;BME280;46331;49.252;8.904;2024-03-02T01:12:12;98584.81;;;4.77;nan
60489;BME280;46331;49.252;8.904;2024-03-02T01:12:53;98578.41;;;4.73;nan
60489;BME280;46331;49.252;8.904;2024-03-02T01:13:33;98588.13;;;4.72;nan
60489;BME280;46331;49.252;8.904;2024-03-02T01:14:14;98578.63;;;4.71;nan
60489;BME280;46331;49.252;8.904;2024-03-02T01:14:55;98588.56;;;4.69;nan
60489;BME280;46331;49.252;8.904;2024-03-02T01:15:35;98581.50;;;4.70;nan
60489;BME280;46331;49.252;8.904;2024-03-02T01:16:16;98583.56;;;4.68;nan
60489;BME280;46331;49.252;8.904;2024-03-02T01:16:57;98578.75;;;4.64;nan
60489;BME280;46331;49.252;8.904;2024-03-02T01:17:38;98583.78;;;4.66;nan
60489;BME280;46331;49.252;8.904;2024-03-02T01:18:20;98577.72;;;4.65;nan
60489;BME280;46331;49.252;8.904;2024-03-02T01:19:02;98585.03;;;4.63;nan
60489;BME280;46331;49.252;8.904;2024-03-02T01:19:43;98574.97;;;4.60;nan
60489;BME280;46331;49.252;8.904;2024-03-02T01:20:24;98582.28;;;4.58;nan
60489;BME280;46331;49.252;8.904;2024-03-02T01:21:05;98579.88;;;4.57;nan
60489;BME280;46331;49.252;8.904;2024-03-02T01:21:45;98583.75;;;4.54;nan
60489;BME280;46331;49.252;8.904;2024-03-02T01:22:26;98582.16;;;4.53;nan
60489;BME280;46331;49.252;8.904;2024-03-02T01:23:06;98580.22;;;4.48;nan
60489;BME280;46331;49.252;8.904;2024-03-02T01:23:47;98581.00;;;4.49;nan
60489;BME280;46331;49.252;8.904;2024-03-02T01:24:28;98583.53;;;4.44;nan
60489;BME280;46331;49.252;8.904;2024-03-02T01:25:09;98585.31;;;4.43;nan
60489;BME280;46331;49.252;8.904;2024-03-02T01:25:50;98586.72;;;4.46;nan
60489;BME280;46331;49.252;8.904;2024-03-02T01:26:31;98582.34;;;4.40;nan
60489;BME280;46331;49.252;8.904;2024-03-02T01:27:11;98580.97;;;4.37;nan
60489;BME280;46331;49.252;8.904;2024-03-02T01:27:52;98575.94;;;4.36;nan
60489;BME280;46331;49.252;8.904;2024-03-02T01:28:33;98578.00;;;4.34;nan
60489;BME280;46331;49.252;8.904;2024-03-02T01:29:13;98573.78;;;4.33;nan
60489;BME280;46331;49.252;8.904;2024-03-02T01:29:54;98567.16;;;4.30;nan
60489;BME280;46331;49.252;8.904;2024-03-02T01:30:34;98574.22;;;4.29;nan
60489;BME280;46331;49.252;8.904;2024-03-02T01:31:15;98579.13;;;4.26;nan
60489;BME280;46331;49.252;8.904;2024-03-02T01:31:56;98573.75;;;4.21;nan
60489;BME280;46331;49.252;8.904;2024-03-02T01:32:38;98574.09;;;4.24;nan
60489;BME280;46331;49.252;8.904;2024-03-02T01:33:19;98570.31;;;4.20;nan
60489;BME280;46331;49.252;8.904;2024-03-02T01:34:00;98574.22;;;4.18;nan
60489;BME280;46331;49.252;8.904;2024-03-02T01:34:40;98568.13;;;4.17;nan
60489;BME280;46331;49.252;8.904;2024-03-02T01:35:21;98567.78;;;4.14;nan
60489;BME280;46331;49.252;8.904;2024-03-02T01:36:02;98571.59;;;4.18;nan
60489;BME280;46331;49.252;8.904;2024-03-02T01:36:42;98573.63;;;4.16;nan
60489;BME280;46331;49.252;8.904;2024-03-02T01:37:23;98569.84;;;4.11;nan
60489;BME280;46331;49.252;8.904;2024-03-02T01:38:04;98573.84;;;4.14;nan
60489;BME280;46331;49.252;8.904;2024-03-02T01:38:46;98574.50;;;4.09;nan
60489;BME280;46331;49.252;8.904;2024-03-02T01:39:27;98572.94;;;4.08;nan
60489;BME280;46331;49.252;8.904;2024-03-02T01:40:07;98569.47;;;4.08;nan
60489;BME280;46331;49.252;8.904;2024-03-02T01:40:51;98571.53;;;4.06;nan
60489;BME280;46331;49.252;8.904;2024-03-02T01:41:32;98573.59;;;4.04;nan
60489;BME280;46331;49.252;8.904;2024-03-02T01:42:12;98572.78;;;4.03;nan
60489;BME280;46331;49.252;8.904;2024-03-02T01:42:53;98570.75;;;4.05;nan
60489;BME280;46331;49.252;8.904;2024-03-02T01:43:34;98575.16;;;4.05;nan
60489;BME280;46331;49.252;8.904;2024-03-02T01:44:15;98568.34;;;4.04;nan
60489;BME280;46331;49.252;8.904;2024-03-02T01:44:56;98568.56;;;4.02;nan
60489;BME280;46331;49.252;8.904;2024-03-02T01:45:36;98573.59;;;4.04;nan
60489;BME280;46331;49.252;8.904;2024-03-02T01:46:17;98569.59;;;4.01;nan
60489;BME280;46331;49.252;8.904;2024-03-02T01:46:58;98574.81;;;4.01;nan
60489;BME280;46331;49.252;8.904;2024-03-02T01:47:39;98569.47;;;3.96;nan
60489;BME280;46331;49.252;8.904;2024-03-02T01:48:19;98564.78;;;3.98;nan
60489;BME280;46331;49.252;8.904;2024-03-02T01:49:00;98574.69;;;3.96;nan
60489;BME280;46331;49.252;8.904;2024-03-02T01:49:40;98565.22;;;3.95;nan
60489;BME280;46331;49.252;8.904;2024-03-02T01:50:28;98573.44;;;3.99;nan
60489;BME280;46331;49.252;8.904;2024-03-02T01:51:09;98581.63;;;3.90;nan
60489;BME280;46331;49.252;8.904;2024-03-02T01:51:50;98575.81;;;3.88;nan
60489;BME280;46331;49.252;8.904;2024-03-02T01:52:31;98581.06;;;3.88;nan
60489;BME280;46331;49.252;8.904;2024-03-02T01:53:12;98580.03;;;3.89;nan
60489;BME280;46331;49.252;8.904;2024-03-02T01:53:52;98585.72;;;3.86;nan
60489;BME280;46331;49.252;8.904;2024-03-02T01:54:33;98585.13;;;3.84;nan
60489;BME280;46331;49.252;8.904;2024-03-02T01:55:13;98586.59;;;3.80;nan
60489;BME280;46331;49.252;8.904;2024-03-02T01:55:54;98579.97;;;3.78;nan
60489;BME280;46331;49.252;8.904;2024-03-02T01:56:34;98584.41;;;3.77;nan
60489;BME280;46331;49.252;8.904;2024-03-02T01:57:15;98585.44;;;3.76;nan
60489;BME280;46331;49.252;8.904;2024-03-02T01:57:57;98580.78;;;3.78;nan
60489;BME280;46331;49.252;8.904;2024-03-02T01:58:38;98580.03;;;3.71;nan
60489;BME280;46331;49.252;8.904;2024-03-02T01:59:18;98584.28;;;3.72;nan
60489;BME280;46331;49.252;8.904;2024-03-02T02:00:00;98573.56;;;3.73;nan
60489;BME280;46331;49.252;8.904;2024-03-02T02:00:40;98579.59;;;3.74;nan
60489;BME280;46331;49.252;8.904;2024-03-02T02:01:21;98576.41;;;3.72;nan
60489;BME280;46331;49.252;8.904;2024-03-02T02:02:01;98579.59;;;3.74;nan
60489;BME280;46331;49.252;8.904;2024-03-02T02:02:43;98568.69;;;3.77;nan
60489;BME280;46331;49.252;8.904;2024-03-02T02:03:23;98569.94;;;3.74;nan
60489;BME280;46331;49.252;8.904;2024-03-02T02:04:04;98579.59;;;3.74;nan
60489;BME280;46331;49.252;8.904;2024-03-02T02:04:46;98569.94;;;3.74;nan
60489;BME280;46331;49.252;8.904;2024-03-02T02:05:27;98569.94;;;3.74;nan
60489;BME280;46331;49.252;8.904;2024-03-02T02:06:07;98565.13;;;3.71;nan
60489;BME280;46331;49.252;8.904;2024-03-02T02:07:09;98566.88;;;3.78;nan
60489;BME280;46331;49.252;8.904;2024-03-02T02:07:50;98566.38;;;3.69;nan
60489;BME280;46331;49.252;8.904;2024-03-02T02:08:30;98568.63;;;3.65;nan
60489;BME280;46331;49.252;8.904;2024-03-02T02:09:11;98568.03;;;3.63;nan
60489;BME280;46331;49.252;8.904;2024-03-02T02:09:52;98562.78;;;3.63;nan
60489;BME280;46331;49.252;8.904;2024-03-02T02:10:33;98574.31;;;3.62;nan
60489;BME280;46331;49.252;8.904;2024-03-02T02:11:16;98568.41;;;3.67;nan
60489;BME280;46331;49.252;8.904;2024-03-02T02:11:57;98566.91;;;3.59;nan
60489;BME280;46331;49.252;8.904;2024-03-02T02:12:38;98569.13;;;3.55;nan
60489;BME280;46331;49.252;8.904;2024-03-02T02:13:19;98564.34;;;3.52;nan
60489;BME280;46331;49.252;8.904;2024-03-02T02:14:00;98563.53;;;3.52;nan
60489;BME280;46331;49.252;8.904;2024-03-02T02:14:47;98564.50;;;3.57;nan
60489;BME280;46331;49.252;8.904;2024-03-02T02:15:29;98556.69;;;3.51;nan
60489;BME280;46331;49.252;8.904;2024-03-02T02:16:09;98561.59;;;3.47;nan
60489;BME280;46331;49.252;8.904;2024-03-02T02:16:50;98558.59;;;3.44;nan
60489;BME280;46331;49.252;8.904;2024-03-02T02:17:31;98555.16;;;3.43;nan
60489;BME280;46331;49.252;8.904;2024-03-02T02:18:11;98553.38;;;3.44;nan
60489;BME280;46331;49.252;8.904;2024-03-02T02:18:52;98555.38;;;3.42;nan
60489;BME280;46331;49.252;8.904;2024-03-02T02:19:32;98549.56;;;3.39;nan
60489;BME280;46331;49.252;8.904;2024-03-02T02:20:13;98554.03;;;3.39;nan
60489;BME280;46331;49.252;8.904;2024-03-02T02:20:54;98554.25;;;3.37;nan
60489;BME280;46331;49.252;8.904;2024-03-02T02:21:34;98552.41;;;3.38;nan
60489;BME280;46331;49.252;8.904;2024-03-02T02:22:15;98553.41;;;3.37;nan
60489;BME280;46331;49.252;8.904;2024-03-02T02:23:00;98548.34;;;3.42;nan
60489;BME280;46331;49.252;8.904;2024-03-02T02:23:41;98549.44;;;3.34;nan
60489;BME280;46331;49.252;8.904;2024-03-02T02:24:26;98549.44;;;3.34;nan
60489;BME280;46331;49.252;8.904;2024-03-02T02:25:07;98547.81;;;3.33;nan
60489;BME280;46331;49.252;8.904;2024-03-02T02:25:47;98542.81;;;3.32;nan
60489;BME280;46331;49.252;8.904;2024-03-02T02:26:28;98542.22;;;3.30;nan
60489;BME280;46331;49.252;8.904;2024-03-02T02:27:09;98543.03;;;3.30;nan
60489;BME280;46331;49.252;8.904;2024-03-02T02:27:50;98538.00;;;3.29;nan
60489;BME280;46331;49.252;8.904;2024-03-02T02:28:31;98541.63;;;3.28;nan
60489;BME280;46331;49.252;8.904;2024-03-02T02:29:11;98542.66;;;3.27;nan
60489;BME280;46331;49.252;8.904;2024-03-02T02:29:52;98543.91;;;3.24;nan
60489;BME280;46331;49.252;8.904;2024-03-02T02:30:33;98546.31;;;3.26;nan
60489;BME280;46331;49.252;8.904;2024-03-02T02:31:14;98551.53;;;3.26;nan
60489;BME280;46331;49.252;8.904;2024-03-02T02:31:54;98544.25;;;3.28;nan
60489;BME280;46331;49.252;8.904;2024-03-02T02:32:35;98540.63;;;3.29;nan
60489;BME280;46331;49.252;8.904;2024-03-02T02:33:15;98544.84;;;3.30;nan
60489;BME280;46331;49.252;8.904;2024-03-02T02:33:56;98547.47;;;3.30;nan
60489;BME280;46331;49.252;8.904;2024-03-02T02:34:36;98543.81;;;3.31;nan
60489;BME280;46331;49.252;8.904;2024-03-02T02:35:17;98543.81;;;3.31;nan
60489;BME280;46331;49.252;8.904;2024-03-02T02:35:58;98542.81;;;3.32;nan
60489;BME280;46331;49.252;8.904;2024-03-02T02:36:39;98540.41;;;3.30;nan
60489;BME280;46331;49.252;8.904;2024-03-02T02:37:20;98542.22;;;3.30;nan
60489;BME280;46331;49.252;8.904;2024-03-02T02:38:01;98542.59;;;3.33;nan
60489;BME280;46331;49.252;8.904;2024-03-02T02:38:44;98548.19;;;3.37;nan
60489;BME280;46331;49.252;8.904;2024-03-02T02:39:27;98542.59;;;3.33;nan
60489;BME280;46331;49.252;8.904;2024-03-02T02:40:08;98543.38;;;3.34;nan
60489;BME280;46331;49.252;8.904;2024-03-02T02:40:49;98538.97;;;3.34;nan
60489;BME280;46331;49.252;8.904;2024-03-02T02:41:30;98541.34;;;3.36;nan
60489;BME280;46331;49.252;8.904;2024-03-02T02:42:10;98532.09;;;3.33;nan
60489;BME280;46331;49.252;8.904;2024-03-02T02:42:51;98540.53;;;3.35;nan
60489;BME280;46331;49.252;8.904;2024-03-02T02:43:34;98537.91;;;3.35;nan
60489;BME280;46331;49.252;8.904;2024-03-02T02:44:15;98533.94;;;3.33;nan
60489;BME280;46331;49.252;8.904;2024-03-02T02:44:55;98531.53;;;3.31;nan
60489;BME280;46331;49.252;8.904;2024-03-02T02:45:36;98529.34;;;3.28;nan
60489;BME280;46331;49.252;8.904;2024-03-02T02:46:16;98536.19;;;3.29;nan
60489;BME280;46331;49.252;8.904;2024-03-02T02:46:57;98525.34;;;3.26;nan
60489;BME280;46331;49.252;8.904;2024-03-02T02:47:37;98530.22;;;3.22;nan
60489;BME280;46331;49.252;8.904;2024-03-02T02:48:18;98518.94;;;3.21;nan
60489;BME280;46331;49.252;8.904;2024-03-02T02:48:59;98528.63;;;3.21;nan
60489;BME280;46331;49.252;8.904;2024-03-02T02:49:39;98519.38;;;3.18;nan
60489;BME280;46331;49.252;8.904;2024-03-02T02:50:20;98526.44;;;3.18;nan
60489;BME280;46331;49.252;8.904;2024-03-02T02:51:00;98526.06;;;3.14;nan
60489;BME280;46331;49.252;8.904;2024-03-02T02:51:41;98525.88;;;3.16;nan
60489;BME280;46331;49.252;8.904;2024-03-02T02:52:21;98521.84;;;3.13;nan
60489;BME280;46331;49.252;8.904;2024-03-02T02:53:02;98530.72;;;3.12;nan
60489;BME280;46331;49.252;8.904;2024-03-02T02:53:43;98514.44;;;3.10;nan
60489;BME280;46331;49.252;8.904;2024-03-02T02:54:23;98524.91;;;3.10;nan
60489;BME280;46331;49.252;8.904;2024-03-02T02:55:04;98522.06;;;3.12;nan
60489;BME280;46331;49.252;8.904;2024-03-02T02:55:45;98527.31;;;3.12;nan
60489;BME280;46331;49.252;8.904;2024-03-02T02:56:26;98522.06;;;3.12;nan
60489;BME280;46331;49.252;8.904;2024-03-02T02:57:06;98522.28;;;3.10;nan
60489;BME280;46331;49.252;8.904;2024-03-02T02:57:47;98522.50;;;3.09;nan
60489;BME280;46331;49.252;8.904;2024-03-02T02:58:28;98523.50;;;3.08;nan
60489;BME280;46331;49.252;8.904;2024-03-02T02:59:08;98525.34;;;3.07;nan
60489;BME280;46331;49.252;8.904;2024-03-02T02:59:49;98524.75;;;3.05;nan
60489;BME280;46331;49.252;8.904;2024-03-02T03:00:29;98516.31;;;3.03;nan
60489;BME280;46331;49.252;8.904;2024-03-02T03:01:10;98518.56;;;2.99;nan
60489;BME280;46331;49.252;8.904;2024-03-02T03:01:51;98528.03;;;3.00;nan
60489;BME280;46331;49.252;8.904;2024-03-02T03:02:32;98522.19;;;2.98;nan
60489;BME280;46331;49.252;8.904;2024-03-02T03:03:12;98522.41;;;2.97;nan
60489;BME280;46331;49.252;8.904;2024-03-02T03:03:53;98524.88;;;2.92;nan
60489;BME280;46331;49.252;8.904;2024-03-02T03:04:33;98522.69;;;2.89;nan
60489;BME280;46331;49.252;8.904;2024-03-02T03:05:14;98523.94;;;2.86;nan
60489;BME280;46331;49.252;8.904;2024-03-02T03:05:55;98522.13;;;2.86;nan
60489;BME280;46331;49.252;8.904;2024-03-02T03:06:35;98527.38;;;2.86;nan
60489;BME280;46331;49.252;8.904;2024-03-02T03:07:16;98525.19;;;2.83;nan
60489;BME280;46331;49.252;8.904;2024-03-02T03:07:56;98520.94;;;2.82;nan
60489;BME280;46331;49.252;8.904;2024-03-02T03:08:37;98526.97;;;2.83;nan
60489;BME280;46331;49.252;8.904;2024-03-02T03:09:18;98527.41;;;2.80;nan
60489;BME280;46331;49.252;8.904;2024-03-02T03:09:58;98528.22;;;2.80;nan
60489;BME280;46331;49.252;8.904;2024-03-02T03:10:39;98519.78;;;2.78;nan
60489;BME280;46331;49.252;8.904;2024-03-02T03:11:20;98513.53;;;2.79;nan
60489;BME280;46331;49.252;8.904;2024-03-02T03:12:03;98521.81;;;2.76;nan
60489;BME280;46331;49.252;8.904;2024-03-02T03:12:43;98513.16;;;2.76;nan
60489;BME280;46331;49.252;8.904;2024-03-02T03:13:24;98521.03;;;2.76;nan
60489;BME280;46331;49.252;8.904;2024-03-02T03:14:04;98523.44;;;2.77;nan
60489;BME280;46331;49.252;8.904;2024-03-02T03:14:45;98521.81;;;2.76;nan
60489;BME280;46331;49.252;8.904;2024-03-02T03:15:26;98524.88;;;2.73;nan
60489;BME280;46331;49.252;8.904;2024-03-02T03:16:06;98523.84;;;2.74;nan
60489;BME280;46331;49.252;8.904;2024-03-02T03:16:47;98515.41;;;2.72;nan
60489;BME280;46331;49.252;8.904;2024-03-02T03:17:28;98522.25;;;2.73;nan
60489;BME280;46331;49.252;8.904;2024-03-02T03:18:09;98525.06;;;2.72;nan
60489;BME280;46331;49.252;8.904;2024-03-02T03:18:50;98522.47;;;2.72;nan
60489;BME280;46331;49.252;8.904;2024-03-02T03:19:31;98520.63;;;2.72;nan
60489;BME280;46331;49.252;8.904;2024-03-02T03:20:12;98521.66;;;2.71;nan
60489;BME280;46331;49.252;8.904;2024-03-02T03:20:53;98520.72;;;2.65;nan
60489;BME280;46331;49.252;8.904;2024-03-02T03:21:33;98525.16;;;2.65;nan
60489;BME280;46331;49.252;8.904;2024-03-02T03:22:14;98521.94;;;2.63;nan
60489;BME280;46331;49.252;8.904;2024-03-02T03:22:54;98529.34;;;2.66;nan
60489;BME280;46331;49.252;8.904;2024-03-02T03:23:35;98533.00;;;2.65;nan
60489;BME280;46331;49.252;8.904;2024-03-02T03:24:15;98518.09;;;2.65;nan
60489;BME280;46331;49.252;8.904;2024-03-02T03:24:56;98531.59;;;2.62;nan
60489;BME280;46331;49.252;8.904;2024-03-02T03:25:36;98523.97;;;2.61;nan
60489;BME280;46331;49.252;8.904;2024-03-02T03:26:17;98521.94;;;2.63;nan
60489;BME280;46331;49.252;8.904;2024-03-02T03:26:58;98520.31;;;2.62;nan
60489;BME280;46331;49.252;8.904;2024-03-02T03:27:38;98523.53;;;2.64;nan
60489;BME280;46331;49.252;8.904;2024-03-02T03:28:19;98528.56;;;2.65;nan
60489;BME280;46331;49.252;8.904;2024-03-02T03:28:59;98524.75;;;2.61;nan
60489;BME280;46331;49.252;8.904;2024-03-02T03:29:40;98534.03;;;2.57;nan
60489;BME280;46331;49.252;8.904;2024-03-02T03:30:20;98527.59;;;2.60;nan
60489;BME280;46331;49.252;8.904;2024-03-02T03:31:01;98525.19;;;2.58;nan
60489;BME280;46331;49.252;8.904;2024-03-02T03:31:42;98526.81;;;2.59;nan
60489;BME280;46331;49.252;8.904;2024-03-02T03:32:23;98533.03;;;2.58;nan
60489;BME280;46331;49.252;8.904;2024-03-02T03:33:04;98525.97;;;2.59;nan
60489;BME280;46331;49.252;8.904;2024-03-02T03:33:46;98526.81;;;2.59;nan
60489;BME280;46331;49.252;8.904;2024-03-02T03:34:26;98527.38;;;2.61;nan
60489;BME280;46331;49.252;8.904;2024-03-02T03:35:09;98530.41;;;2.58;nan
60489;BME280;46331;49.252;8.904;2024-03-02T03:35:50;98530.63;;;2.57;nan
60489;BME280;46331;49.252;8.904;2024-03-02T03:36:30;98526.41;;;2.56;nan
60489;BME280;46331;49.252;8.904;2024-03-02T03:37:11;98525.63;;;2.55;nan
60489;BME280;46331;49.252;8.904;2024-03-02T03:37:51;98530.63;;;2.57;nan
60489;BME280;46331;49.252;8.904;2024-03-02T03:38:32;98533.03;;;2.58;nan
60489;BME280;46331;49.252;8.904;2024-03-02T03:39:12;98527.22;;;2.56;nan
60489;BME280;46331;49.252;8.904;2024-03-02T03:39:53;98523.00;;;2.55;nan
60489;BME280;46331;49.252;8.904;2024-03-02T03:40:33;98521.16;;;2.56;nan
60489;BME280;46331;49.252;8.904;2024-03-02T03:41:14;98528.03;;;2.57;nan
60489;BME280;46331;49.252;8.904;2024-03-02T03:41:55;98525.19;;;2.58;nan
60489;BME280;46331;49.252;8.904;2024-03-02T03:42:36;98523.97;;;2.61;nan
60489;BME280;46331;49.252;8.904;2024-03-02T03:43:17;98527.59;;;2.60;nan
60489;BME280;46331;49.252;8.904;2024-03-02T03:43:58;98516.13;;;2.61;nan
60489;BME280;46331;49.252;8.904;2024-03-02T03:44:38;98526.59;;;2.61;nan
60489;BME280;46331;49.252;8.904;2024-03-02T03:45:20;98519.75;;;2.60;nan
60489;BME280;46331;49.252;8.904;2024-03-02T03:46:01;98526.81;;;2.59;nan
60489;BME280;46331;49.252;8.904;2024-03-02T03:46:42;98518.34;;;2.57;nan
60489;BME280;46331;49.252;8.904;2024-03-02T03:47:23;98522.00;;;2.56;nan
60489;BME280;46331;49.252;8.904;2024-03-02T03:48:03;98515.94;;;2.56;nan
60489;BME280;46331;49.252;8.904;2024-03-02T03:48:44;98509.91;;;2.55;nan
60489;BME280;46331;49.252;8.904;2024-03-02T03:49:25;98514.34;;;2.55;nan
60489;BME280;46331;49.252;8.904;2024-03-02T03:50:06;98518.97;;;2.53;nan